Rechercher aéroport 
image banner adimage banner adimage banner ad
image banner ad

CL89 - Mga Chatsworth

Situé à Chatsworth, United States

ICAO - CL89, IATA -

Données fournies par Airmate  

Information générale

Coordonnées: N34°14'20" W118°34'10"
Élévation : 859 feet MSL.
Variation magnétique : 14° East
Voir autres Aéroports à California

Données opérationnelles

Special qualification required
Heure actuelle UTC:
Heure actuelle locale:
Météo à : KVNY - Van Nuys ( 8 km )
METAR: KVNY 180651Z AUTO 11003KT 10SM CLR 17/12 A3003 RMK AO2 SLP163 T01720122
TAF: KVNY 180530Z 1806/1906 10006KT P6SM SKC FM180900 VRB03KT P6SM SKC FM182000 15008KT P6SM SKC FM190400 11006KT P6SM SKC
Voir NOTAMs / SUP AIP / TFR affectant cet aéroport [VIEW]
Fréquences de communication: [VIEW]

Pistes:

Coordonnées de l'aéroport

Adresse: Chatsworth United States

Vue satellite de CL89